Fort Lee, NJ (07024)

6:42 AM EDT on March 27, 2015 (GMT -0400)
Palisades Park | | Change Station
CLOSE
Current Station
Personal Weather Station
Location: Palisades Park, NJ
Elevation: 115 ft
Nearby Weather Stations

Elev 115 ft 40.84 °N, 74.00 °W | Updated 5 minutes ago

Rain
Rain
38.8 °F
Feels Like 39 °F
N
1.7
Wind Variable Wind from NNW

Today
High -- | Low -- °F
--% Chance of Precip.
Yesterday
High -- | Low -- °F
Precip. -- in
6:48 AM 7:15 PM
Waxing Crescent, 51% visible
Pressure 29.75 in
Visibility 10.0 miles
Clouds Scattered Clouds 1500 ft
Mostly Cloudy 4300 ft
Overcast 6000 ft
Windchill 39 °F
Dew Point 38 °F
Humidity 97%
Rainfall 0.38 in
Snow Depth Not available.
UV 0 out of 12
Pollen 4.10 out of 12
Air Quality Not available.
Flu Activity Not available.
SPECI KTEB 271026Z 33007KT 10SM -RA BR SCT015 BKN043 OVC060 04/02 A2975

More Conditions Fewer Conditions

Pressure 29.75 in
Visibility 10.0 miles
Clouds Scattered Clouds 1500 ft
Mostly Cloudy 4300 ft
Overcast 6000 ft
Windchill 39 °F
Dew Point 38 °F
Humidity 97%
Rainfall 0.38 in
Snow Depth Not available.
UV 0 out of 12
Pollen 4.10 out of 12
Air Quality Not available.
Flu Activity Not available.
SPECI KTEB 271026Z 33007KT 10SM -RA BR SCT015 BKN043 OVC060 04/02 A2975

More Conditions Fewer Conditions

10-Day Weather Forecast

Almanac

Astronomy

Mar. 27, 2015 Rise Set
Actual Time
Civil Twilight
Nautical Twilight
Astronomical Twilight
Moon
Length of Visible Light
Length of Day
Tomorrow will be .
, % of the Moon is Illuminated

Today's Extremes

State Highs State Lows

Community

WunderPhotos

Upload Photos

1,808,706 photos uploaded!

WunderBlogs® & News

Nearby

Air Quality

  Air Quality AQ Index Pollutant
Not available.

Snow Depth

Station Depth Elevation

Earthquake Activity

City Distance Mag. Time & Date
Minimum magnitude displayed is 2.5.

Coastal Water Temperatures

Place Temperature

Stations

Nearby Weather Stations

Station Location Temp. Windchill Dew Point Humidity Wind Precip. Elev Updated Type